createdAt,value
2018-10-19T00:00:23.518Z,9.33
2018-10-19T00:02:51.731Z,11.07
2018-10-19T00:05:19.916Z,11.23
2018-10-19T00:07:48.126Z,11.00
2018-10-19T00:10:16.548Z,10.27
2018-10-19T00:12:45.112Z,11.80
2018-10-19T00:15:13.635Z,9.17
2018-10-19T00:17:41.737Z,11.67
2018-10-19T00:20:10.300Z,12.57
2018-10-19T00:22:38.434Z,11.03
2018-10-19T00:25:07.053Z,11.33
2018-10-19T00:27:35.577Z,11.47
2018-10-19T00:30:03.784Z,8.63
2018-10-19T00:32:32.509Z,12.33
2018-10-19T00:35:00.680Z,7.90
2018-10-19T00:37:28.838Z,9.90
2018-10-19T00:39:56.993Z,9.57
2018-10-19T00:42:25.128Z,13.00
2018-10-19T00:44:53.903Z,11.93
2018-10-19T00:47:22.076Z,11.17
2018-10-19T00:49:50.260Z,9.70
2018-10-19T00:52:18.656Z,12.27
2018-10-19T00:54:46.789Z,10.67
2018-10-19T00:57:15.252Z,14.70
2018-10-19T00:59:43.315Z,13.20
2018-10-19T01:02:11.520Z,12.93
2018-10-19T01:04:39.894Z,14.67
2018-10-19T01:07:08.262Z,14.43
2018-10-19T01:09:36.401Z,14.90
2018-10-19T01:12:05.034Z,13.40
2018-10-19T01:14:33.166Z,9.90
2018-10-19T01:17:01.310Z,9.83
2018-10-19T01:19:29.794Z,14.27
2018-10-19T01:21:57.961Z,14.70
2018-10-19T01:24:26.390Z,13.40
2018-10-19T01:26:54.565Z,12.17
2018-10-19T01:29:22.711Z,14.07
2018-10-19T01:31:50.874Z,14.00
2018-10-19T01:34:19.031Z,11.33
2018-10-19T01:36:47.167Z,12.23
2018-10-19T01:39:15.376Z,11.93
2018-10-19T01:41:44.079Z,11.23
2018-10-19T01:44:12.495Z,15.20
2018-10-19T01:46:45.472Z,11.30
2018-10-19T01:49:14.142Z,13.23
2018-10-19T01:51:42.512Z,12.53
2018-10-19T01:54:10.666Z,10.13
2018-10-19T01:56:39.095Z,8.33
2018-10-19T01:59:07.554Z,10.77
2018-10-19T02:01:35.698Z,11.80
2018-10-19T02:04:03.867Z,12.10
2018-10-19T02:06:32.246Z,11.40
2018-10-19T02:09:03.688Z,11.97
2018-10-19T02:11:31.843Z,40.43
2018-10-19T02:13:59.970Z,47.00
2018-10-19T02:16:28.111Z,17.03
2018-10-19T02:18:56.259Z,13.43
2018-10-19T02:21:24.419Z,11.53
2018-10-19T02:23:52.579Z,13.23
2018-10-19T02:26:20.747Z,16.90
2018-10-19T02:28:48.909Z,12.93
2018-10-19T02:31:17.070Z,8.53
2018-10-19T02:33:45.239Z,8.83
2018-10-19T02:36:13.621Z,9.40
2018-10-19T02:38:42.085Z,10.87
2018-10-19T02:41:10.283Z,9.13
2018-10-19T02:43:38.686Z,12.97
2018-10-19T02:46:07.386Z,10.27
2018-10-19T02:48:35.543Z,10.53
2018-10-19T02:51:03.773Z,9.73
2018-10-19T02:53:31.905Z,7.90
2018-10-19T02:56:00.072Z,7.17
2018-10-19T02:58:28.300Z,32.03
2018-10-19T03:00:56.703Z,18.73
2018-10-19T03:03:24.859Z,26.70
2018-10-19T03:05:53.010Z,15.20
2018-10-19T03:08:21.181Z,17.63
2018-10-19T03:10:49.391Z,15.47
2018-10-19T03:13:17.937Z,20.50
2018-10-19T03:15:46.447Z,40.00
2018-10-19T03:18:14.919Z,62.73
2018-10-19T03:20:43.071Z,52.53
2018-10-19T03:23:11.263Z,14.27
2018-10-19T03:25:39.684Z,58.40
2018-10-19T03:28:07.863Z,97.47
2018-10-19T03:30:36.008Z,139.10
2018-10-19T03:33:04.582Z,32.43
2018-10-19T03:35:32.758Z,79.33
2018-10-19T03:38:00.953Z,13.27
2018-10-19T03:40:29.442Z,38.67
2018-10-19T03:42:57.804Z,27.13
2018-10-19T03:45:26.133Z,74.53
2018-10-19T03:47:54.497Z,15.83
2018-10-19T03:50:22.855Z,21.50
2018-10-19T03:52:51.199Z,30.03
2018-10-19T03:55:19.575Z,19.33
2018-10-19T03:57:47.903Z,12.30
2018-10-19T04:00:16.221Z,20.63
2018-10-19T04:02:44.559Z,19.80
2018-10-19T04:05:13.059Z,16.33
2018-10-19T04:07:41.529Z,30.73
2018-10-19T04:10:09.883Z,26.00
2018-10-19T04:12:38.424Z,47.97
2018-10-19T04:15:07.641Z,37.53
2018-10-19T04:17:36.048Z,64.73
2018-10-19T04:20:04.492Z,69.10
2018-10-19T04:22:32.923Z,31.17
2018-10-19T04:25:01.312Z,30.20
2018-10-19T04:27:29.781Z,31.10
2018-10-19T04:29:58.067Z,17.77
2018-10-19T04:32:26.386Z,12.80
2018-10-19T04:34:54.775Z,15.23
2018-10-19T04:37:23.132Z,38.97
2018-10-19T04:39:51.450Z,63.23
2018-10-19T04:42:19.890Z,27.67
2018-10-19T04:44:48.202Z,31.07
2018-10-19T04:47:16.631Z,56.43
2018-10-19T04:49:44.952Z,42.33
2018-10-19T04:52:13.314Z,48.00
2018-10-19T04:54:41.711Z,30.27
2018-10-19T04:57:10.069Z,17.53
2018-10-19T04:59:38.384Z,53.43
2018-10-19T05:02:06.715Z,28.10
2018-10-19T05:04:35.096Z,52.93
2018-10-19T05:07:03.422Z,17.30
2018-10-19T05:09:31.763Z,26.80
2018-10-19T05:12:00.100Z,41.50
2018-10-19T05:14:28.448Z,30.17
2018-10-19T05:16:56.779Z,23.70
2018-10-19T05:19:25.156Z,22.70
2018-10-19T05:21:53.521Z,51.43
2018-10-19T05:24:21.855Z,43.90
2018-10-19T05:26:50.215Z,27.17
2018-10-19T05:29:18.544Z,73.57
2018-10-19T05:31:46.879Z,56.77
2018-10-19T05:34:15.220Z,28.07
2018-10-19T05:36:43.568Z,48.23
2018-10-19T05:39:11.929Z,56.33
2018-10-19T05:41:40.258Z,50.53
2018-10-19T05:44:08.634Z,72.43
2018-10-19T05:46:36.962Z,36.57
2018-10-19T05:49:05.502Z,27.97
2018-10-19T05:51:34.056Z,32.30
2018-10-19T05:54:02.492Z,18.70
2018-10-19T05:56:30.675Z,38.17
2018-10-19T05:58:59.148Z,47.40
2018-10-19T06:01:27.315Z,17.57
2018-10-19T06:03:55.469Z,41.03
2018-10-19T06:06:23.659Z,60.67
2018-10-19T06:08:51.816Z,71.17
2018-10-19T06:11:20.071Z,29.27
2018-10-19T06:13:48.382Z,60.43
2018-10-19T06:16:16.482Z,39.27
2018-10-19T06:18:44.654Z,38.60
2018-10-19T06:21:12.909Z,27.40
2018-10-19T06:23:40.978Z,47.23
2018-10-19T06:26:09.240Z,42.67
2018-10-19T06:28:37.334Z,46.07
2018-10-19T06:31:05.530Z,24.50
2018-10-19T06:33:33.981Z,13.27
2018-10-19T06:36:02.216Z,19.03
2018-10-19T06:38:30.391Z,22.37
2018-10-19T06:40:58.581Z,12.70
2018-10-19T06:43:27.069Z,21.03
2018-10-19T06:45:55.286Z,22.10
2018-10-19T06:48:23.780Z,16.17
2018-10-19T06:50:51.955Z,29.97
2018-10-19T06:53:20.398Z,26.67
2018-10-19T06:55:48.945Z,20.00
2018-10-19T06:58:17.148Z,39.73
2018-10-19T07:00:45.316Z,30.17
2018-10-19T07:03:13.472Z,31.00
2018-10-19T07:05:41.739Z,45.80
2018-10-19T07:08:10.268Z,39.07
2018-10-19T07:10:38.412Z,28.57
2018-10-19T07:13:06.609Z,16.80
2018-10-19T07:15:34.819Z,13.87
2018-10-19T07:18:03.383Z,20.87
2018-10-19T07:20:31.567Z,12.10
2018-10-19T07:22:59.860Z,29.70
2018-10-19T07:25:28.043Z,15.63
2018-10-19T07:27:56.488Z,22.33
2018-10-19T07:30:25.071Z,11.60
2018-10-19T07:32:53.493Z,18.60
2018-10-19T07:35:21.872Z,10.97
2018-10-19T07:37:50.054Z,18.37
2018-10-19T07:40:18.203Z,14.03
2018-10-19T07:42:46.852Z,11.43
2018-10-19T07:45:15.071Z,11.10
2018-10-19T07:47:43.653Z,13.10
2018-10-19T07:50:11.737Z,10.80
2018-10-19T07:52:40.316Z,10.47
2018-10-19T07:55:09.502Z,11.37
2018-10-19T07:57:37.675Z,9.90
2018-10-19T08:00:07.162Z,11.30
2018-10-19T08:02:35.287Z,11.87
2018-10-19T08:05:03.637Z,9.80
2018-10-19T08:07:32.072Z,9.20
2018-10-19T08:10:00.519Z,9.33
2018-10-19T08:12:28.711Z,10.03
2018-10-19T08:14:56.913Z,9.67
2018-10-19T08:17:25.391Z,10.63
2018-10-19T08:19:53.611Z,9.40
2018-10-19T08:22:22.134Z,10.20
2018-10-19T08:24:51.561Z,9.87
2018-10-19T08:27:19.839Z,9.50
2018-10-19T08:29:47.907Z,9.47
2018-10-19T08:32:16.390Z,11.83
2018-10-19T08:34:44.863Z,12.10
2018-10-19T08:37:13.372Z,9.83
2018-10-19T08:39:41.551Z,10.73
2018-10-19T08:42:09.764Z,9.80
2018-10-19T08:44:37.915Z,8.73
2018-10-19T08:47:06.508Z,10.90
2018-10-19T08:49:35.096Z,9.27
2018-10-19T08:52:03.529Z,12.40
2018-10-19T08:54:32.014Z,11.00
2018-10-19T08:57:00.460Z,10.23
2018-10-19T08:59:28.838Z,9.53
2018-10-19T09:01:57.755Z,10.87
2018-10-19T09:04:26.255Z,11.10
2018-10-19T09:06:54.452Z,7.60
2018-10-19T09:09:23.397Z,6.70
2018-10-19T09:11:51.579Z,8.70
2018-10-19T09:14:31.336Z,9.77
2018-10-19T09:16:59.490Z,6.50
2018-10-19T09:19:28.044Z,7.40
2018-10-19T09:21:56.410Z,6.83
2018-10-19T09:24:24.579Z,8.80
2018-10-19T09:26:52.982Z,7.37
2018-10-19T09:29:21.502Z,5.93
2018-10-19T09:31:49.665Z,6.20
2018-10-19T09:34:17.858Z,8.70
2018-10-19T09:36:46.697Z,7.67
2018-10-19T09:39:14.873Z,5.57
2018-10-19T09:41:43.576Z,5.27
2018-10-19T09:44:11.801Z,7.87
2018-10-19T09:46:41.441Z,5.20
2018-10-19T09:49:11.863Z,6.10
2018-10-19T09:51:40.767Z,4.60
2018-10-19T09:54:10.453Z,7.33
2018-10-19T09:56:38.903Z,5.77
2018-10-19T09:59:07.136Z,4.83
2018-10-19T10:01:35.562Z,5.83
2018-10-19T10:04:03.730Z,6.83
2018-10-19T10:06:31.878Z,6.50
2018-10-19T10:09:00.101Z,7.03
2018-10-19T10:11:28.214Z,8.27
2018-10-19T10:13:56.408Z,7.30
2018-10-19T10:16:24.528Z,5.83
2018-10-19T10:18:52.689Z,6.07
2018-10-19T10:21:21.125Z,5.73
2018-10-19T10:23:49.299Z,4.53
2018-10-19T10:26:18.146Z,4.77
2018-10-19T10:28:46.531Z,4.27
2018-10-19T10:31:14.959Z,10.57
2018-10-19T10:33:43.228Z,8.80
2018-10-19T10:36:11.580Z,5.60
2018-10-19T10:38:40.004Z,6.73
2018-10-19T10:41:08.264Z,6.40
2018-10-19T10:43:36.595Z,5.80
2018-10-19T10:46:05.043Z,5.67
2018-10-19T10:48:33.327Z,8.53
2018-10-19T10:51:01.668Z,5.27
2018-10-19T10:53:30.116Z,6.77
2018-10-19T10:55:58.479Z,4.60
2018-10-19T10:58:26.829Z,7.43
2018-10-19T11:00:55.174Z,6.73
2018-10-19T11:03:23.503Z,5.77
2018-10-19T11:05:51.873Z,4.87
2018-10-19T11:08:20.219Z,5.10
2018-10-19T11:10:48.592Z,5.90
2018-10-19T11:13:16.967Z,7.07
2018-10-19T11:15:45.288Z,5.53
2018-10-19T11:18:13.776Z,5.87
2018-10-19T11:20:42.095Z,5.53
2018-10-19T11:23:10.427Z,5.67
2018-10-19T11:25:38.768Z,5.67
2018-10-19T11:28:07.183Z,5.57
2018-10-19T11:30:35.511Z,3.60
2018-10-19T11:33:04.013Z,5.80
2018-10-19T11:35:32.380Z,5.83
2018-10-19T11:38:00.766Z,8.03
2018-10-19T11:40:33.492Z,6.23
2018-10-19T11:43:01.822Z,5.00
2018-10-19T11:45:31.483Z,7.67
2018-10-19T11:48:00.000Z,7.10
2018-10-19T11:50:28.461Z,7.93
2018-10-19T11:52:56.843Z,4.50
2018-10-19T11:55:25.227Z,7.03
2018-10-19T11:57:53.791Z,4.83
2018-10-19T12:00:22.251Z,5.50
2018-10-19T12:02:50.647Z,7.73
2018-10-19T12:05:19.084Z,5.07
2018-10-19T12:07:47.577Z,5.80
2018-10-19T12:10:16.164Z,6.87
2018-10-19T12:12:44.487Z,5.33
2018-10-19T12:15:14.161Z,4.33
2018-10-19T12:17:43.248Z,7.37
2018-10-19T12:20:13.584Z,6.23
2018-10-19T12:22:42.053Z,7.97
2018-10-19T12:25:11.364Z,5.50
2018-10-19T12:27:40.220Z,5.40
2018-10-19T12:30:09.590Z,8.20
2018-10-19T12:32:38.243Z,6.00
2018-10-19T12:35:08.010Z,5.40
2018-10-19T12:37:36.383Z,6.63
2018-10-19T12:40:04.789Z,5.07
2018-10-19T12:42:33.145Z,8.17
2018-10-19T12:45:01.578Z,6.27
2018-10-19T12:47:33.588Z,6.20
2018-10-19T12:50:01.768Z,8.23
2018-10-19T12:52:29.950Z,8.53
2018-10-19T12:54:58.706Z,7.07
2018-10-19T12:57:26.922Z,8.87
2018-10-19T12:59:55.347Z,5.47
2018-10-19T13:02:23.524Z,7.17
2018-10-19T13:04:52.078Z,7.80
2018-10-19T13:07:20.241Z,7.37
2018-10-19T13:09:49.109Z,7.77
2018-10-19T13:12:17.628Z,7.30
2018-10-19T13:14:45.815Z,8.07
2018-10-19T13:17:13.961Z,8.00
2018-10-19T13:19:42.168Z,7.37
2018-10-19T13:22:10.739Z,7.87
2018-10-19T13:24:39.325Z,10.07
2018-10-19T13:27:07.666Z,4.93
2018-10-19T13:29:36.379Z,6.97
2018-10-19T13:32:05.202Z,8.50
2018-10-19T13:34:33.599Z,8.97
2018-10-19T13:37:01.966Z,7.07
2018-10-19T13:39:30.298Z,7.37
2018-10-19T13:41:58.651Z,8.97
2018-10-19T13:44:27.012Z,5.30
2018-10-19T13:46:55.330Z,6.03
2018-10-19T13:49:23.696Z,6.43
2018-10-19T13:51:52.040Z,5.63
2018-10-19T13:54:20.478Z,9.90
2018-10-19T13:56:48.828Z,6.13
2018-10-19T13:59:17.206Z,6.10
2018-10-19T14:01:45.508Z,6.90
2018-10-19T14:04:13.849Z,6.73
2018-10-19T14:06:42.173Z,6.40
2018-10-19T14:09:10.993Z,8.23
2018-10-19T14:11:40.129Z,5.80
2018-10-19T14:14:08.455Z,7.90
2018-10-19T14:16:36.794Z,5.87
2018-10-19T14:19:05.428Z,5.40
2018-10-19T14:21:33.889Z,6.23
2018-10-19T14:24:02.251Z,5.87
2018-10-19T14:26:30.588Z,5.23
2018-10-19T14:28:58.980Z,5.67
2018-10-19T14:31:27.319Z,7.60
2018-10-19T14:33:55.671Z,7.63
2018-10-19T14:36:24.103Z,5.93
2018-10-19T14:38:52.446Z,6.03
2018-10-19T14:41:25.980Z,6.13
2018-10-19T14:43:54.335Z,6.70
2018-10-19T14:46:22.683Z,6.57
2018-10-19T14:48:51.044Z,6.63
2018-10-19T14:51:19.445Z,8.73
2018-10-19T14:53:47.847Z,5.80
2018-10-19T14:56:16.187Z,6.37
2018-10-19T14:58:44.540Z,9.40
2018-10-19T15:01:12.923Z,4.97
2018-10-19T15:03:41.271Z,5.63
2018-10-19T15:06:09.664Z,6.17
2018-10-19T15:08:38.084Z,6.40
2018-10-19T15:11:06.612Z,4.30
2018-10-19T15:13:34.816Z,4.37
2018-10-19T15:16:03.326Z,6.97
2018-10-19T15:18:31.781Z,7.17
2018-10-19T15:21:01.431Z,3.10
2018-10-19T15:23:29.645Z,4.23
2018-10-19T15:25:58.207Z,4.03
2018-10-19T15:28:26.379Z,4.80
2018-10-19T15:30:54.553Z,4.87
2018-10-19T15:33:22.729Z,7.23
2018-10-19T15:35:50.975Z,5.53
2018-10-19T15:38:20.046Z,5.70
2018-10-19T15:40:48.263Z,5.40
2018-10-19T15:43:16.546Z,6.13
2018-10-19T15:45:45.103Z,6.27
2018-10-19T15:48:13.315Z,6.43
2018-10-19T15:50:41.467Z,3.83
2018-10-19T15:53:09.628Z,8.50
2018-10-19T15:55:37.823Z,5.03
2018-10-19T15:58:06.091Z,6.30
2018-10-19T16:00:34.790Z,5.57
2018-10-19T16:03:03.238Z,4.93
2018-10-19T16:05:38.289Z,6.27
2018-10-19T16:08:06.619Z,3.80
2018-10-19T16:10:35.021Z,8.43
2018-10-19T16:13:03.323Z,5.20
2018-10-19T16:15:31.676Z,4.43
2018-10-19T16:18:00.084Z,5.67
2018-10-19T16:20:28.400Z,9.30
2018-10-19T16:22:56.735Z,7.30
2018-10-19T16:27:59.740Z,6.60
2018-10-19T16:30:28.251Z,8.27
2018-10-19T16:32:56.580Z,5.90
2018-10-19T16:35:24.914Z,5.27
2018-10-19T16:37:53.468Z,7.10
2018-10-19T16:40:21.895Z,8.40
2018-10-19T16:42:50.203Z,5.80
2018-10-19T16:45:18.558Z,6.00
2018-10-19T16:47:46.994Z,5.43
2018-10-19T16:50:15.312Z,6.23
2018-10-19T16:52:44.940Z,3.50
2018-10-19T16:55:14.457Z,6.33
2018-10-19T16:57:43.943Z,6.83
2018-10-19T17:00:14.120Z,6.80
2018-10-19T17:02:44.679Z,7.33
2018-10-19T17:05:15.736Z,11.20
2018-10-19T17:07:46.477Z,6.17
2018-10-19T17:10:17.032Z,7.53
2018-10-19T17:12:47.300Z,9.13
2018-10-19T17:15:17.478Z,9.30
2018-10-19T17:17:47.396Z,8.30
2018-10-19T17:20:17.222Z,9.60
2018-10-19T17:22:47.141Z,8.73
2018-10-19T17:25:16.447Z,11.57
2018-10-19T17:27:45.068Z,7.07
2018-10-19T17:30:14.145Z,8.50
2018-10-19T17:32:42.439Z,5.73
2018-10-19T17:35:11.223Z,9.37
2018-10-19T17:37:39.462Z,12.30
2018-10-19T17:40:09.096Z,7.53
2018-10-19T17:42:37.314Z,8.17
2018-10-19T17:45:06.801Z,8.90
2018-10-19T17:47:35.206Z,10.87
2018-10-19T17:50:03.769Z,8.63
2018-10-19T17:52:32.243Z,9.63
2018-10-19T17:55:00.517Z,7.40
2018-10-19T17:57:29.749Z,11.33
2018-10-19T17:59:58.218Z,8.20
2018-10-19T18:02:26.692Z,6.20
2018-10-19T18:04:55.180Z,8.03
2018-10-19T18:07:23.588Z,9.33
2018-10-19T18:09:52.178Z,8.73
2018-10-19T18:12:20.567Z,7.37
2018-10-19T18:14:48.974Z,9.90
2018-10-19T18:17:17.351Z,10.00
2018-10-19T18:19:45.809Z,13.90
2018-10-19T18:22:14.491Z,11.27
2018-10-19T18:24:42.520Z,9.97
2018-10-19T18:27:10.999Z,11.07
2018-10-19T18:29:39.364Z,9.77
2018-10-19T18:32:07.785Z,9.13
2018-10-19T18:34:36.204Z,7.60
2018-10-19T18:37:05.169Z,9.83
2018-10-19T18:39:33.670Z,9.50
2018-10-19T18:42:02.335Z,9.43
2018-10-19T18:44:30.564Z,8.07
2018-10-19T18:46:58.878Z,10.27
2018-10-19T18:49:27.061Z,9.10
2018-10-19T18:51:55.348Z,10.00
2018-10-19T18:54:23.991Z,10.47
2018-10-19T18:56:52.206Z,11.63
2018-10-19T18:59:20.897Z,6.60
2018-10-19T19:01:49.062Z,6.30
2018-10-19T19:04:17.332Z,7.33
2018-10-19T19:06:45.923Z,7.37
2018-10-19T19:09:14.771Z,7.30
2018-10-19T19:11:44.093Z,6.30
2018-10-19T19:14:13.444Z,9.70
2018-10-19T19:16:41.800Z,9.40
2018-10-19T19:19:10.334Z,10.00
2018-10-19T19:21:38.837Z,9.53
2018-10-19T19:24:12.537Z,9.20
2018-10-19T19:26:41.027Z,5.73
2018-10-19T19:29:09.665Z,7.23
2018-10-19T19:31:38.071Z,7.70
2018-10-19T19:34:11.973Z,9.30
2018-10-19T19:36:40.535Z,8.37
2018-10-19T19:42:50.725Z,10.33
2018-10-19T19:45:19.493Z,7.57
2018-10-19T19:47:53.270Z,10.30
2018-10-19T19:50:21.737Z,6.20
2018-10-19T19:52:50.302Z,7.57
2018-10-19T19:55:18.864Z,15.50
2018-10-19T19:57:47.500Z,7.67
2018-10-19T20:00:15.920Z,7.97
2018-10-19T20:02:44.485Z,11.90
2018-10-19T20:05:12.943Z,9.67
2018-10-19T20:07:41.381Z,8.17
2018-10-19T20:10:09.896Z,7.97
2018-10-19T20:12:38.465Z,7.57
2018-10-19T20:15:07.445Z,9.60
2018-10-19T20:17:35.821Z,8.37
2018-10-19T20:27:49.301Z,7.50
2018-10-19T20:50:43.303Z,7.93
2018-10-19T21:19:07.008Z,12.33
2018-10-19T21:21:35.232Z,11.63
2018-10-19T21:24:03.506Z,9.80
2018-10-19T21:26:31.792Z,12.53
2018-10-19T21:29:00.105Z,12.03
2018-10-19T21:31:28.349Z,12.40
2018-10-19T21:33:56.620Z,13.33
2018-10-19T21:36:25.010Z,14.30
2018-10-19T21:38:53.163Z,11.90
2018-10-19T21:41:21.471Z,14.20
2018-10-19T21:43:49.824Z,13.07
2018-10-19T21:46:18.171Z,12.03
2018-10-19T21:48:46.825Z,13.53
2018-10-19T21:51:15.182Z,13.03
2018-10-19T21:53:43.507Z,14.37
2018-10-19T21:56:13.159Z,13.77
2018-10-19T21:58:41.543Z,11.00
2018-10-19T22:01:10.067Z,14.57
2018-10-19T22:03:38.579Z,14.57
2018-10-19T22:06:06.982Z,20.00
2018-10-19T22:08:35.495Z,13.83
2018-10-19T22:11:03.931Z,15.00
2018-10-19T22:13:32.381Z,12.03
2018-10-19T22:16:00.794Z,11.53
2018-10-19T22:18:29.224Z,11.13
2018-10-19T22:20:57.647Z,10.90
2018-10-19T22:23:26.342Z,12.87
2018-10-19T22:25:54.670Z,11.93
2018-10-19T22:28:23.019Z,13.70
2018-10-19T22:30:51.364Z,14.70
2018-10-19T22:33:26.502Z,12.00
2018-10-19T22:35:54.820Z,11.60
2018-10-19T22:38:23.195Z,10.97
2018-10-19T22:40:51.519Z,14.90
2018-10-19T22:43:19.871Z,14.07
2018-10-19T22:45:48.240Z,17.97
2018-10-19T22:48:16.592Z,12.63
2018-10-19T22:50:44.955Z,13.50
2018-10-19T22:53:13.431Z,14.40
2018-10-19T22:55:41.739Z,14.67
2018-10-19T22:58:10.129Z,12.70
2018-10-19T23:00:38.465Z,13.43
2018-10-19T23:03:09.781Z,14.53
2018-10-19T23:05:38.127Z,10.20
2018-10-19T23:08:06.463Z,12.33
2018-10-19T23:10:34.780Z,13.60
2018-10-19T23:13:03.158Z,12.33
2018-10-19T23:15:31.511Z,12.50
2018-10-19T23:17:59.844Z,13.83
2018-10-19T23:20:28.180Z,13.23
2018-10-19T23:22:56.910Z,13.50
2018-10-19T23:25:25.254Z,14.60
2018-10-19T23:27:53.597Z,13.67
2018-10-19T23:30:21.962Z,14.73
2018-10-19T23:32:50.318Z,13.13
2018-10-19T23:35:18.633Z,12.63
2018-10-19T23:37:47.032Z,16.37
2018-10-19T23:40:15.356Z,11.53
2018-10-19T23:42:43.763Z,11.77
2018-10-19T23:45:12.127Z,12.00
2018-10-19T23:47:40.512Z,12.53
2018-10-19T23:50:09.390Z,12.67
2018-10-19T23:52:37.890Z,12.87
2018-10-19T23:55:06.629Z,12.50
2018-10-19T23:57:34.899Z,12.17
